Terminal Aerodrome Forecast
Issued by NWS La Crosse, WI

Home | Current Version | Previous Version | Text Only | Print | Product List | Glossary On
Versions: 1 2 3 4 5 6 7 8 9 10 11 12 13 14 15 16 17 18 19 20 21 22 23 24 25 26 27 28 29 30 31 32 33 34 35 36
000
FTUS43 KARX 210525
TAFLSE
TAF
KLSE 210525Z 2106/2206 32013KT P6SM SCT035
     FM210900 31012KT P6SM BKN020
     FM211800 33012G20KT P6SM SCT030
     FM220000 34006KT P6SM SKC=

USA.gov is the U.S. government's official web portal to all federal, state and local government web resources and services.